sensor_id;sensor_type;location;lat;lon;timestamp;pressure;altitude;pressure_sealevel;temperature;humidity
43934;BME280;59081;42.706;23.306;2024-01-30T00:04:30;96988.31;;;-2.93;82.26
43934;BME280;59081;42.706;23.306;2024-01-30T00:09:31;97030.47;;;-2.97;84.60
43934;BME280;59081;42.706;23.306;2024-01-30T00:14:31;97061.50;;;-2.86;84.90
43934;BME280;59081;42.706;23.306;2024-01-30T00:19:35;97081.91;;;-2.71;84.95
43934;BME280;59081;42.706;23.306;2024-01-30T00:24:35;97093.16;;;-2.33;82.96
43934;BME280;59081;42.706;23.306;2024-01-30T00:29:36;97070.63;;;-2.73;84.60
43934;BME280;59081;42.706;23.306;2024-01-30T00:34:36;97138.44;;;-2.30;84.90
43934;BME280;59081;42.706;23.306;2024-01-30T00:39:37;97086.13;;;-2.42;84.63
43934;BME280;59081;42.706;23.306;2024-01-30T00:44:37;97036.56;;;-2.69;83.32
43934;BME280;59081;42.706;23.306;2024-01-30T00:49:38;97088.06;;;-2.57;83.45
43934;BME280;59081;42.706;23.306;2024-01-30T00:54:39;97074.94;;;-2.72;83.23
43934;BME280;59081;42.706;23.306;2024-01-30T00:59:40;97151.69;;;-1.66;80.76
43934;BME280;59081;42.706;23.306;2024-01-30T01:04:40;97039.06;;;-2.95;83.67
43934;BME280;59081;42.706;23.306;2024-01-30T01:09:41;97133.22;;;-2.49;84.77
43934;BME280;59081;42.706;23.306;2024-01-30T01:14:41;97065.44;;;-2.47;82.28
43934;BME280;59081;42.706;23.306;2024-01-30T01:19:42;97187.50;;;-2.05;83.64
43934;BME280;59081;42.706;23.306;2024-01-30T01:24:42;97162.63;;;-2.38;84.40
43934;BME280;59081;42.706;23.306;2024-01-30T01:29:43;96988.59;;;-3.17;83.94
43934;BME280;59081;42.706;23.306;2024-01-30T01:34:44;97173.63;;;-2.35;84.91
43934;BME280;59081;42.706;23.306;2024-01-30T01:39:45;97045.91;;;-3.25;85.10
43934;BME280;59081;42.706;23.306;2024-01-30T01:44:46;97044.16;;;-3.43;86.26
43934;BME280;59081;42.706;23.306;2024-01-30T01:49:46;97139.63;;;-2.58;85.14
43934;BME280;59081;42.706;23.306;2024-01-30T01:54:47;97003.88;;;-3.62;86.78
43934;BME280;59081;42.706;23.306;2024-01-30T01:59:48;97068.59;;;-3.39;88.07
43934;BME280;59081;42.706;23.306;2024-01-30T02:04:48;97101.78;;;-2.67;83.96
43934;BME280;59081;42.706;23.306;2024-01-30T02:09:49;97118.13;;;-2.86;85.37
43934;BME280;59081;42.706;23.306;2024-01-30T02:14:50;97181.84;;;-2.40;85.28
43934;BME280;59081;42.706;23.306;2024-01-30T02:19:51;97115.13;;;-2.48;84.07
43934;BME280;59081;42.706;23.306;2024-01-30T02:24:52;97028.94;;;-3.25;83.80
43934;BME280;59081;42.706;23.306;2024-01-30T02:29:52;97043.91;;;-3.19;84.35
43934;BME280;59081;42.706;23.306;2024-01-30T02:34:53;97085.63;;;-2.44;82.40
43934;BME280;59081;42.706;23.306;2024-01-30T02:39:53;97032.50;;;-3.02;83.08
43934;BME280;59081;42.706;23.306;2024-01-30T02:44:54;97070.84;;;-2.47;85.03
43934;BME280;59081;42.706;23.306;2024-01-30T02:49:55;97092.94;;;-2.81;83.68
43934;BME280;59081;42.706;23.306;2024-01-30T02:54:55;97081.28;;;-2.90;83.81
43934;BME280;59081;42.706;23.306;2024-01-30T02:59:56;97097.50;;;-2.68;83.22
43934;BME280;59081;42.706;23.306;2024-01-30T03:04:56;96987.50;;;-3.16;81.91
43934;BME280;59081;42.706;23.306;2024-01-30T03:09:57;97090.31;;;-2.72;82.94
43934;BME280;59081;42.706;23.306;2024-01-30T03:14:57;97185.78;;;-2.01;82.75
43934;BME280;59081;42.706;23.306;2024-01-30T03:19:58;97007.47;;;-3.17;82.71
43934;BME280;59081;42.706;23.306;2024-01-30T03:24:58;97077.69;;;-2.86;83.13
43934;BME280;59081;42.706;23.306;2024-01-30T03:29:59;97075.34;;;-2.56;80.69
43934;BME280;59081;42.706;23.306;2024-01-30T03:35:00;97088.50;;;-2.63;81.55
43934;BME280;59081;42.706;23.306;2024-01-30T03:40:01;97081.38;;;-2.82;81.75
43934;BME280;59081;42.706;23.306;2024-01-30T03:45:03;97059.16;;;-2.34;80.07
43934;BME280;59081;42.706;23.306;2024-01-30T03:50:04;97084.00;;;-2.68;79.77
43934;BME280;59081;42.706;23.306;2024-01-30T03:55:05;97112.72;;;-2.50;79.96
43934;BME280;59081;42.706;23.306;2024-01-30T04:00:06;97112.53;;;-2.31;78.98
43934;BME280;59081;42.706;23.306;2024-01-30T04:05:07;97061.28;;;-2.89;79.82
43934;BME280;59081;42.706;23.306;2024-01-30T04:10:09;97152.59;;;-2.47;80.87
43934;BME280;59081;42.706;23.306;2024-01-30T04:15:10;97158.28;;;-2.48;81.45
43934;BME280;59081;42.706;23.306;2024-01-30T04:20:14;97063.03;;;-3.07;81.03
43934;BME280;59081;42.706;23.306;2024-01-30T04:25:17;97126.28;;;-2.77;81.43
43934;BME280;59081;42.706;23.306;2024-01-30T04:30:18;97041.59;;;-3.48;83.18
43934;BME280;59081;42.706;23.306;2024-01-30T04:35:19;97190.72;;;-2.39;80.79
43934;BME280;59081;42.706;23.306;2024-01-30T04:40:23;97106.78;;;-3.10;82.91
43934;BME280;59081;42.706;23.306;2024-01-30T04:45:24;97106.63;;;-3.13;82.10
43934;BME280;59081;42.706;23.306;2024-01-30T04:50:24;97113.34;;;-2.89;81.77
43934;BME280;59081;42.706;23.306;2024-01-30T04:55:26;97085.16;;;-3.32;82.25
43934;BME280;59081;42.706;23.306;2024-01-30T05:00:27;97006.91;;;-3.91;82.49
43934;BME280;59081;42.706;23.306;2024-01-30T05:05:28;97170.44;;;-2.73;83.40
43934;BME280;59081;42.706;23.306;2024-01-30T05:10:28;97103.41;;;-3.16;82.54
43934;BME280;59081;42.706;23.306;2024-01-30T05:15:29;97191.22;;;-2.73;83.91
43934;BME280;59081;42.706;23.306;2024-01-30T05:20:30;97046.47;;;-3.77;84.87
43934;BME280;59081;42.706;23.306;2024-01-30T05:25:30;97137.25;;;-2.73;82.48
43934;BME280;59081;42.706;23.306;2024-01-30T05:30:31;97054.38;;;-3.67;84.11
43934;BME280;59081;42.706;23.306;2024-01-30T05:35:32;97092.88;;;-2.23;79.20
43934;BME280;59081;42.706;23.306;2024-01-30T05:40:32;97131.69;;;-3.54;85.09
43934;BME280;59081;42.706;23.306;2024-01-30T05:45:33;97108.22;;;-3.54;84.49
43934;BME280;59081;42.706;23.306;2024-01-30T05:50:35;97103.19;;;-3.05;81.78
43934;BME280;59081;42.706;23.306;2024-01-30T05:55:36;97133.44;;;-3.08;81.89
43934;BME280;59081;42.706;23.306;2024-01-30T06:00:36;97116.13;;;-2.80;80.05
43934;BME280;59081;42.706;23.306;2024-01-30T06:05:37;97168.66;;;-2.91;79.39
43934;BME280;59081;42.706;23.306;2024-01-30T06:10:38;97141.66;;;-3.13;79.50
43934;BME280;59081;42.706;23.306;2024-01-30T06:15:39;97117.00;;;-3.21;78.96
43934;BME280;59081;42.706;23.306;2024-01-30T06:20:40;97079.88;;;-3.37;77.33
43934;BME280;59081;42.706;23.306;2024-01-30T06:25:40;97095.66;;;-3.44;78.67
43934;BME280;59081;42.706;23.306;2024-01-30T06:30:41;97029.66;;;-3.83;79.29
43934;BME280;59081;42.706;23.306;2024-01-30T06:35:41;97220.56;;;-2.44;79.11
43934;BME280;59081;42.706;23.306;2024-01-30T06:40:42;97168.78;;;-2.24;78.25
43934;BME280;59081;42.706;23.306;2024-01-30T06:50:48;97094.97;;;-2.20;74.71
43934;BME280;59081;42.706;23.306;2024-01-30T06:55:49;97068.72;;;-2.72;74.58
43934;BME280;59081;42.706;23.306;2024-01-30T07:00:51;97057.50;;;-2.21;85.50
43934;BME280;59081;42.706;23.306;2024-01-30T07:05:51;97106.75;;;-2.16;73.76
43934;BME280;59081;42.706;23.306;2024-01-30T07:10:52;97147.97;;;-1.79;71.94
43934;BME280;59081;42.706;23.306;2024-01-30T07:15:55;97202.50;;;-1.46;71.54
43934;BME280;59081;42.706;23.306;2024-01-30T07:20:55;97130.25;;;-1.54;70.40
43934;BME280;59081;42.706;23.306;2024-01-30T07:25:57;97167.00;;;-1.14;69.32
43934;BME280;59081;42.706;23.306;2024-01-30T07:30:58;97189.06;;;-1.29;69.69
43934;BME280;59081;42.706;23.306;2024-01-30T07:35:58;97151.44;;;-0.99;67.89
43934;BME280;59081;42.706;23.306;2024-01-30T07:40:59;97168.53;;;-0.90;64.88
43934;BME280;59081;42.706;23.306;2024-01-30T07:46:00;97105.22;;;-1.37;65.21
43934;BME280;59081;42.706;23.306;2024-01-30T07:51:02;97161.03;;;-0.93;65.88
43934;BME280;59081;42.706;23.306;2024-01-30T07:56:05;97140.97;;;-0.92;64.33
43934;BME280;59081;42.706;23.306;2024-01-30T08:01:06;97143.59;;;-0.53;63.17
43934;BME280;59081;42.706;23.306;2024-01-30T08:06:06;97108.84;;;-0.51;62.61
43934;BME280;59081;42.706;23.306;2024-01-30T08:11:07;97137.34;;;-0.62;62.38
43934;BME280;59081;42.706;23.306;2024-01-30T08:16:08;97148.03;;;-0.74;63.17
43934;BME280;59081;42.706;23.306;2024-01-30T08:21:08;97180.34;;;0.34;60.81
43934;BME280;59081;42.706;23.306;2024-01-30T08:26:09;97176.88;;;-0.26;61.63
43934;BME280;59081;42.706;23.306;2024-01-30T08:31:10;97077.81;;;-0.71;61.03
43934;BME280;59081;42.706;23.306;2024-01-30T08:36:12;97162.69;;;0.58;58.97
43934;BME280;59081;42.706;23.306;2024-01-30T08:41:12;97207.22;;;0.57;59.49
43934;BME280;59081;42.706;23.306;2024-01-30T08:46:17;97163.75;;;0.27;61.05
43934;BME280;59081;42.706;23.306;2024-01-30T08:51:18;97121.56;;;0.56;60.00
43934;BME280;59081;42.706;23.306;2024-01-30T08:56:18;97148.28;;;0.19;61.24
43934;BME280;59081;42.706;23.306;2024-01-30T09:01:19;97214.81;;;1.19;60.09
43934;BME280;59081;42.706;23.306;2024-01-30T09:06:19;97140.72;;;1.39;58.01
43934;BME280;59081;42.706;23.306;2024-01-30T09:11:20;97219.59;;;0.75;61.72
43934;BME280;59081;42.706;23.306;2024-01-30T09:16:20;97045.66;;;-0.63;64.24
43934;BME280;59081;42.706;23.306;2024-01-30T09:21:21;97105.66;;;0.37;62.19
43934;BME280;59081;42.706;23.306;2024-01-30T09:26:21;97125.84;;;0.02;63.61
43934;BME280;59081;42.706;23.306;2024-01-30T09:31:22;97105.47;;;-0.13;63.57
43934;BME280;59081;42.706;23.306;2024-01-30T09:36:22;97068.50;;;0.38;61.00
43934;BME280;59081;42.706;23.306;2024-01-30T09:41:24;97192.03;;;2.03;57.24
43934;BME280;59081;42.706;23.306;2024-01-30T09:46:27;97031.34;;;0.97;56.86
43934;BME280;59081;42.706;23.306;2024-01-30T09:51:29;97114.91;;;1.74;55.10
43934;BME280;59081;42.706;23.306;2024-01-30T09:56:30;97168.69;;;1.60;55.62
43934;BME280;59081;42.706;23.306;2024-01-30T10:01:31;97016.72;;;-0.08;57.83
43934;BME280;59081;42.706;23.306;2024-01-30T10:06:34;97175.84;;;0.39;61.62
43934;BME280;59081;42.706;23.306;2024-01-30T10:11:36;97115.28;;;0.34;60.25
43934;BME280;59081;42.706;23.306;2024-01-30T10:16:37;97078.53;;;0.46;59.79
43934;BME280;59081;42.706;23.306;2024-01-30T10:21:37;97003.09;;;0.48;58.06
43934;BME280;59081;42.706;23.306;2024-01-30T10:26:38;97155.22;;;3.08;51.37
43934;BME280;59081;42.706;23.306;2024-01-30T10:31:39;97053.56;;;2.43;49.38
43934;BME280;59081;42.706;23.306;2024-01-30T10:36:40;97192.53;;;4.36;47.91
43934;BME280;59081;42.706;23.306;2024-01-30T10:41:44;97120.38;;;3.66;47.97
43934;BME280;59081;42.706;23.306;2024-01-30T10:46:51;97130.88;;;4.79;45.61
43934;BME280;59081;42.706;23.306;2024-01-30T10:51:57;97013.03;;;2.38;47.21
43934;BME280;59081;42.706;23.306;2024-01-30T10:57:00;97113.28;;;3.49;47.62
43934;BME280;59081;42.706;23.306;2024-01-30T11:02:04;97049.69;;;4.29;44.79
43934;BME280;59081;42.706;23.306;2024-01-30T11:07:19;97132.97;;;4.10;46.24
43934;BME280;59081;42.706;23.306;2024-01-30T11:12:24;97013.63;;;4.86;42.66
43934;BME280;59081;42.706;23.306;2024-01-30T11:17:27;96968.66;;;4.80;42.10
43934;BME280;59081;42.706;23.306;2024-01-30T11:22:30;96997.38;;;3.24;45.31
43934;BME280;59081;42.706;23.306;2024-01-30T11:27:31;97004.84;;;3.55;45.86
43934;BME280;59081;42.706;23.306;2024-01-30T11:32:32;97106.75;;;4.97;43.65
43934;BME280;59081;42.706;23.306;2024-01-30T11:37:36;97055.16;;;2.80;47.18
43934;BME280;59081;42.706;23.306;2024-01-30T11:42:39;97164.72;;;3.50;48.09
43934;BME280;59081;42.706;23.306;2024-01-30T11:47:40;96986.13;;;3.25;46.13
43934;BME280;59081;42.706;23.306;2024-01-30T11:52:41;97085.63;;;2.25;51.26
43934;BME280;59081;42.706;23.306;2024-01-30T11:57:43;97059.03;;;2.79;50.16
43934;BME280;59081;42.706;23.306;2024-01-30T12:02:52;97034.81;;;1.60;52.45
43934;BME280;59081;42.706;23.306;2024-01-30T12:07:56;97113.16;;;2.93;51.22
43934;BME280;59081;42.706;23.306;2024-01-30T12:12:59;97034.72;;;3.51;47.54
43934;BME280;59081;42.706;23.306;2024-01-30T12:18:07;97040.72;;;4.28;45.28
43934;BME280;59081;42.706;23.306;2024-01-30T12:23:08;96949.50;;;4.61;42.49
43934;BME280;59081;42.706;23.306;2024-01-30T12:28:08;97014.75;;;5.36;42.57
43934;BME280;59081;42.706;23.306;2024-01-30T12:33:09;97007.91;;;6.03;40.33
43934;BME280;59081;42.706;23.306;2024-01-30T12:38:10;97026.38;;;7.05;38.97
43934;BME280;59081;42.706;23.306;2024-01-30T12:43:10;96983.81;;;6.12;39.26
43934;BME280;59081;42.706;23.306;2024-01-30T12:48:11;96983.41;;;6.33;39.71
43934;BME280;59081;42.706;23.306;2024-01-30T12:53:11;97042.75;;;7.01;37.86
43934;BME280;59081;42.706;23.306;2024-01-30T12:58:13;96992.09;;;6.88;38.51
43934;BME280;59081;42.706;23.306;2024-01-30T13:03:13;96984.88;;;7.32;36.83
43934;BME280;59081;42.706;23.306;2024-01-30T13:08:14;96983.13;;;6.42;38.14
43934;BME280;59081;42.706;23.306;2024-01-30T13:13:15;97009.56;;;7.66;37.34
43934;BME280;59081;42.706;23.306;2024-01-30T13:18:16;96987.06;;;8.24;34.88
43934;BME280;59081;42.706;23.306;2024-01-30T13:23:16;97003.84;;;7.78;35.82
43934;BME280;59081;42.706;23.306;2024-01-30T13:28:17;96987.28;;;6.32;38.76
43934;BME280;59081;42.706;23.306;2024-01-30T13:33:17;96978.38;;;5.93;39.11
43934;BME280;59081;42.706;23.306;2024-01-30T13:38:18;97053.13;;;7.41;37.51
43934;BME280;59081;42.706;23.306;2024-01-30T13:43:18;96959.59;;;7.83;35.76
43934;BME280;59081;42.706;23.306;2024-01-30T13:48:19;96987.59;;;7.32;36.97
43934;BME280;59081;42.706;23.306;2024-01-30T13:53:20;96948.31;;;5.74;40.29
43934;BME280;59081;42.706;23.306;2024-01-30T13:58:21;96973.44;;;5.41;41.52
43934;BME280;59081;42.706;23.306;2024-01-30T14:03:21;97067.72;;;4.96;43.35
43934;BME280;59081;42.706;23.306;2024-01-30T14:08:22;97059.13;;;4.47;45.12
43934;BME280;59081;42.706;23.306;2024-01-30T14:13:24;97022.44;;;4.01;45.98
43934;BME280;59081;42.706;23.306;2024-01-30T14:18:25;96955.81;;;3.27;46.69
43934;BME280;59081;42.706;23.306;2024-01-30T14:23:26;96888.75;;;1.90;49.55
43934;BME280;59081;42.706;23.306;2024-01-30T14:28:27;96997.03;;;2.73;50.10
43934;BME280;59081;42.706;23.306;2024-01-30T14:33:27;96989.66;;;2.00;51.83
43934;BME280;59081;42.706;23.306;2024-01-30T14:38:28;96960.78;;;2.97;53.66
43934;BME280;59081;42.706;23.306;2024-01-30T14:43:28;96971.81;;;0.50;63.22
43934;BME280;59081;42.706;23.306;2024-01-30T14:48:29;97007.06;;;1.00;63.40
43934;BME280;59081;42.706;23.306;2024-01-30T14:53:30;96900.25;;;0.63;61.65
43934;BME280;59081;42.706;23.306;2024-01-30T14:58:31;96876.25;;;-0.64;66.00
43934;BME280;59081;42.706;23.306;2024-01-30T15:03:32;97011.25;;;0.01;68.43
43934;BME280;59081;42.706;23.306;2024-01-30T15:08:32;97064.50;;;0.73;65.26
43934;BME280;59081;42.706;23.306;2024-01-30T15:13:33;96988.47;;;-0.45;67.00
43934;BME280;59081;42.706;23.306;2024-01-30T15:18:33;96894.84;;;-1.10;68.54
43934;BME280;59081;42.706;23.306;2024-01-30T15:23:34;96922.19;;;-1.11;70.11
43934;BME280;59081;42.706;23.306;2024-01-30T15:28:38;96937.41;;;-0.72;68.64
43934;BME280;59081;42.706;23.306;2024-01-30T15:33:39;96990.13;;;-0.87;71.35
43934;BME280;59081;42.706;23.306;2024-01-30T15:38:40;96945.88;;;-1.34;72.40
43934;BME280;59081;42.706;23.306;2024-01-30T15:43:41;96929.34;;;-1.07;71.11
43934;BME280;59081;42.706;23.306;2024-01-30T15:48:41;96907.06;;;-1.81;73.46
43934;BME280;59081;42.706;23.306;2024-01-30T15:53:42;96928.97;;;-1.91;74.68
43934;BME280;59081;42.706;23.306;2024-01-30T15:58:43;96904.84;;;-1.70;72.97
43934;BME280;59081;42.706;23.306;2024-01-30T16:03:49;96949.63;;;-1.87;75.31
43934;BME280;59081;42.706;23.306;2024-01-30T16:08:49;96996.75;;;-1.36;77.21
43934;BME280;59081;42.706;23.306;2024-01-30T16:13:50;97053.75;;;-0.98;78.31
43934;BME280;59081;42.706;23.306;2024-01-30T16:18:52;96956.50;;;-0.60;79.78
43934;BME280;59081;42.706;23.306;2024-01-30T16:23:53;97016.53;;;-1.84;77.43
43934;BME280;59081;42.706;23.306;2024-01-30T16:28:54;96950.50;;;-2.48;78.84
43934;BME280;59081;42.706;23.306;2024-01-30T16:33:54;96943.47;;;-2.27;77.58
43934;BME280;59081;42.706;23.306;2024-01-30T16:38:57;97055.25;;;-1.88;79.00
43934;BME280;59081;42.706;23.306;2024-01-30T16:43:58;97037.16;;;-1.88;79.35
43934;BME280;59081;42.706;23.306;2024-01-30T16:48:59;96939.63;;;-2.65;78.28
43934;BME280;59081;42.706;23.306;2024-01-30T16:54:01;96894.31;;;-3.08;80.18
43934;BME280;59081;42.706;23.306;2024-01-30T16:59:02;96951.81;;;-2.68;80.18
43934;BME280;59081;42.706;23.306;2024-01-30T17:04:02;97079.22;;;-0.99;79.58
43934;BME280;59081;42.706;23.306;2024-01-30T17:09:06;97012.47;;;-2.34;81.31
43934;BME280;59081;42.706;23.306;2024-01-30T17:14:08;96973.84;;;-2.74;81.93
43934;BME280;59081;42.706;23.306;2024-01-30T17:19:08;96938.81;;;-2.66;79.44
43934;BME280;59081;42.706;23.306;2024-01-30T17:24:09;97013.16;;;-2.60;82.49
43934;BME280;59081;42.706;23.306;2024-01-30T17:29:11;97037.53;;;-1.07;82.38
43934;BME280;59081;42.706;23.306;2024-01-30T17:34:14;97030.84;;;-2.90;84.07
43934;BME280;59081;42.706;23.306;2024-01-30T17:39:15;96897.97;;;-3.71;84.08
43934;BME280;59081;42.706;23.306;2024-01-30T17:44:15;97032.00;;;-2.06;81.62
43934;BME280;59081;42.706;23.306;2024-01-30T17:49:16;96990.97;;;-1.69;78.42
43934;BME280;59081;42.706;23.306;2024-01-30T17:54:18;96947.13;;;-3.29;82.14
43934;BME280;59081;42.706;23.306;2024-01-30T17:59:18;96982.13;;;-3.16;83.43
43934;BME280;59081;42.706;23.306;2024-01-30T18:04:23;96955.03;;;-3.33;82.88
43934;BME280;59081;42.706;23.306;2024-01-30T18:09:24;97017.38;;;-2.67;82.24
43934;BME280;59081;42.706;23.306;2024-01-30T18:14:25;97007.69;;;-2.68;82.65
43934;BME280;59081;42.706;23.306;2024-01-30T18:19:26;96902.34;;;-3.39;82.76
43934;BME280;59081;42.706;23.306;2024-01-30T18:24:26;97102.59;;;-2.44;83.89
43934;BME280;59081;42.706;23.306;2024-01-30T18:29:33;96917.22;;;-3.64;84.72
43934;BME280;59081;42.706;23.306;2024-01-30T18:34:39;96803.66;;;-4.15;82.95
43934;BME280;59081;42.706;23.306;2024-01-30T18:39:43;96972.28;;;-3.34;84.26
43934;BME280;59081;42.706;23.306;2024-01-30T18:44:46;97023.50;;;-3.11;85.19
43934;BME280;59081;42.706;23.306;2024-01-30T18:50:09;97091.75;;;-1.68;83.30
43934;BME280;59081;42.706;23.306;2024-01-30T18:55:12;96709.19;;;-5.00;84.47
43934;BME280;59081;42.706;23.306;2024-01-30T19:00:23;97013.38;;;-3.14;85.49
43934;BME280;59081;42.706;23.306;2024-01-30T19:05:32;96783.63;;;-4.09;84.37
43934;BME280;59081;42.706;23.306;2024-01-30T19:10:43;96926.69;;;-3.66;85.45
43934;BME280;59081;42.706;23.306;2024-01-30T19:15:55;97084.13;;;-2.73;86.03
43934;BME280;59081;42.706;23.306;2024-01-30T19:21:02;96850.22;;;-4.29;86.29
43934;BME280;59081;42.706;23.306;2024-01-30T19:26:04;96872.72;;;-4.11;85.48
43934;BME280;59081;42.706;23.306;2024-01-30T19:31:10;96765.94;;;-4.87;86.94
43934;BME280;59081;42.706;23.306;2024-01-30T19:36:14;96905.53;;;-4.09;87.43
43934;BME280;59081;42.706;23.306;2024-01-30T19:41:15;96972.16;;;-3.29;84.78
43934;BME280;59081;42.706;23.306;2024-01-30T19:46:18;97082.66;;;-2.79;87.68
43934;BME280;59081;42.706;23.306;2024-01-30T19:51:25;96945.25;;;-3.65;87.37
43934;BME280;59081;42.706;23.306;2024-01-30T19:56:26;96875.97;;;-3.51;86.21
43934;BME280;59081;42.706;23.306;2024-01-30T20:01:31;97088.53;;;-2.77;88.06
43934;BME280;59081;42.706;23.306;2024-01-30T20:06:33;96923.72;;;-3.78;88.46
43934;BME280;59081;42.706;23.306;2024-01-30T20:11:35;97068.22;;;-2.97;89.92
43934;BME280;59081;42.706;23.306;2024-01-30T20:16:41;96850.16;;;-4.37;89.07
43934;BME280;59081;42.706;23.306;2024-01-30T20:21:42;96998.94;;;-3.46;89.87
43934;BME280;59081;42.706;23.306;2024-01-30T20:26:48;96779.25;;;-4.96;89.02
43934;BME280;59081;42.706;23.306;2024-01-30T20:31:58;96918.41;;;-4.19;91.36
43934;BME280;59081;42.706;23.306;2024-01-30T20:37:02;96825.44;;;-4.39;89.90
43934;BME280;59081;42.706;23.306;2024-01-30T20:42:03;96709.03;;;-4.53;87.80
43934;BME280;59081;42.706;23.306;2024-01-30T20:47:14;96736.97;;;-4.91;87.60
43934;BME280;59081;42.706;23.306;2024-01-30T20:52:18;96920.50;;;-4.16;90.68
43934;BME280;59081;42.706;23.306;2024-01-30T20:57:28;96920.78;;;-4.32;91.81
43934;BME280;59081;42.706;23.306;2024-01-30T21:02:32;96764.31;;;-4.25;89.11
43934;BME280;59081;42.706;23.306;2024-01-30T21:07:38;97059.69;;;-3.26;90.36
43934;BME280;59081;42.706;23.306;2024-01-30T21:12:47;96907.44;;;-4.50;92.73
43934;BME280;59081;42.706;23.306;2024-01-30T21:17:54;97064.25;;;-2.99;91.47
43934;BME280;59081;42.706;23.306;2024-01-30T21:23:01;96748.72;;;-5.14;90.95
43934;BME280;59081;42.706;23.306;2024-01-30T21:28:05;96955.97;;;-4.01;94.32
43934;BME280;59081;42.706;23.306;2024-01-30T21:33:21;96757.66;;;-5.32;94.94
43934;BME280;59081;42.706;23.306;2024-01-30T21:38:22;96796.22;;;-4.32;93.48
43934;BME280;59081;42.706;23.306;2024-01-30T21:43:36;96870.28;;;-4.76;95.46
43934;BME280;59081;42.706;23.306;2024-01-30T21:48:45;96756.19;;;-5.71;96.66
43934;BME280;59081;42.706;23.306;2024-01-30T21:53:51;96742.75;;;-5.24;96.16
43934;BME280;59081;42.706;23.306;2024-01-30T21:59:00;96969.91;;;-4.12;96.28
43934;BME280;59081;42.706;23.306;2024-01-30T22:04:05;96853.38;;;-5.22;99.62
43934;BME280;59081;42.706;23.306;2024-01-30T22:09:33;96668.66;;;-6.13;98.45
43934;BME280;59081;42.706;23.306;2024-01-30T22:14:40;96825.75;;;-4.82;95.10
43934;BME280;59081;42.706;23.306;2024-01-30T22:25:22;96975.84;;;-5.03;100.00
43934;BME280;59081;42.706;23.306;2024-01-30T22:30:26;96969.41;;;-4.14;100.00
43934;BME280;59081;42.706;23.306;2024-01-30T22:35:39;96956.53;;;-5.05;100.00
43934;BME280;59081;42.706;23.306;2024-01-30T22:40:46;97051.41;;;-4.72;100.00
43934;BME280;59081;42.706;23.306;2024-01-30T22:45:47;96915.97;;;-4.76;100.00
43934;BME280;59081;42.706;23.306;2024-01-30T22:50:47;96951.53;;;-5.11;100.00
43934;BME280;59081;42.706;23.306;2024-01-30T22:55:48;96751.03;;;-5.67;99.98
43934;BME280;59081;42.706;23.306;2024-01-30T23:00:49;96659.41;;;-6.90;99.94
43934;BME280;59081;42.706;23.306;2024-01-30T23:05:49;96825.13;;;-5.52;100.00
43934;BME280;59081;42.706;23.306;2024-01-30T23:10:50;96845.22;;;-5.82;98.83
43934;BME280;59081;42.706;23.306;2024-01-30T23:15:50;96772.06;;;-5.55;95.07
43934;BME280;59081;42.706;23.306;2024-01-30T23:20:51;96866.72;;;-6.01;100.00
43934;BME280;59081;42.706;23.306;2024-01-30T23:25:52;96784.88;;;-6.36;100.00
43934;BME280;59081;42.706;23.306;2024-01-30T23:30:53;96801.19;;;-5.49;97.61
43934;BME280;59081;42.706;23.306;2024-01-30T23:35:54;96938.41;;;-3.84;93.83
43934;BME280;59081;42.706;23.306;2024-01-30T23:40:55;96731.13;;;-6.63;97.91
43934;BME280;59081;42.706;23.306;2024-01-30T23:45:56;96781.38;;;-6.55;100.00
43934;BME280;59081;42.706;23.306;2024-01-30T23:50:57;96614.38;;;-6.88;98.92
43934;BME280;59081;42.706;23.306;2024-01-30T23:55:57;96613.34;;;-7.49;99.55
